Carrigaline, Ireland
Current Conditions -  °F | °C
As of 6:00 AM on Monday 26 Jan 2015 (Local Time) from EICK Reporting Station
Broken Clouds Broken Clouds  
Wind Chill: 35°   Ceiling: 3000
Heat Index: 43°   Visibility: 6mi
Dew Point: 39°   Wind: 15mph
Humidity: 87%   Direction: 300°WNW
Pressure: 30.3"   Gusts: NA
Location:  51.81°N, 8.39°W
Report Text: EICK 260600Z 30013KT 9999 FEW016 BKN030 06/04 Q1026 NOSIG
Loading
Personal Weather Stations






























Interactive Weather Map New forecast layout! Learn more

10-Day Weather Forecast

Advertisements
Track Severe Weather on mobile